logo dgac
Lunes 19 de Abril del 2021
Buscar por aerodromo o helipuerto
Ingrese nombre de aeródromo, localidad o designador OACI:
METAR del 19-04-2021 a las 12:00 UTC
Para mayor información visite www.meteochile.cl
METAR SCCY 191200Z 24004KT 200V280 8000 -RA BKN025 OVC033 09/07 Q0999
Viento: dirección 240 grados, velocidad 4 nudos
Viento con dirección variable entre 200 y 280 grados
Visibilidad: 8000 metros
Débil Lluvia
Nubes: Nublado a 2500 pies sobre el nivel del aeródromo
Nubes: Cubierto a 3300 pies sobre el nivel del aeródromo
Temperatura: 9 °C
Rocío: 7 °C
Humedad_relativa: 87%
Presión: 999 hPa